createdAt,value
2018-04-19T00:02:05.619Z,27.97
2018-04-19T00:04:34.659Z,27.33
2018-04-19T00:07:02.898Z,26.37
2018-04-19T00:09:37.636Z,30.37
2018-04-19T00:12:05.868Z,29.73
2018-04-19T00:14:34.103Z,29.83
2018-04-19T00:17:02.354Z,30.60
2018-04-19T00:19:30.606Z,33.53
2018-04-19T00:21:59.671Z,34.80
2018-04-19T00:24:27.911Z,29.20
2018-04-19T00:26:56.167Z,29.13
2018-04-19T00:29:24.395Z,30.20
2018-04-19T00:31:52.656Z,30.93
2018-04-19T00:34:26.575Z,29.93
2018-04-19T00:36:54.800Z,29.10
2018-04-19T00:39:23.036Z,29.33
2018-04-19T00:41:51.288Z,29.47
2018-04-19T00:44:19.533Z,31.23
2018-04-19T00:46:47.793Z,35.20
2018-04-19T00:49:16.028Z,33.97
2018-04-19T00:51:44.283Z,33.57
2018-04-19T00:54:12.538Z,30.57
2018-04-19T00:56:41.166Z,32.70
2018-04-19T00:59:09.383Z,26.77
2018-04-19T01:01:37.642Z,26.10
2018-04-19T01:04:05.875Z,25.10
2018-04-19T01:06:34.113Z,26.90
2018-04-19T01:09:02.742Z,25.53
2018-04-19T01:11:30.947Z,25.23
2018-04-19T01:13:59.203Z,25.60
2018-04-19T01:16:28.211Z,27.63
2018-04-19T01:18:56.471Z,28.13
2018-04-19T01:21:25.474Z,29.60
2018-04-19T01:23:53.736Z,32.73
2018-04-19T01:26:22.739Z,32.60
2018-04-19T01:28:50.991Z,30.57
2018-04-19T01:31:20.000Z,29.23
2018-04-19T01:33:49.011Z,32.60
2018-04-19T01:36:24.903Z,32.30
2018-04-19T01:38:53.146Z,32.93
2018-04-19T01:41:21.380Z,36.23
2018-04-19T01:43:50.499Z,34.00
2018-04-19T01:46:18.739Z,36.17
2018-04-19T01:48:46.987Z,34.67
2018-04-19T01:51:15.225Z,34.97
2018-04-19T01:53:43.470Z,33.40
2018-04-19T01:56:12.965Z,30.87
2018-04-19T01:58:41.184Z,33.40
2018-04-19T02:01:09.423Z,32.47
2018-04-19T02:03:38.435Z,35.83
2018-04-19T02:06:06.676Z,31.57
2018-04-19T02:08:34.923Z,33.97
2018-04-19T02:11:03.158Z,33.53
2018-04-19T02:13:31.410Z,30.20
2018-04-19T02:16:00.417Z,32.80
2018-04-19T02:18:28.682Z,34.40
2018-04-19T02:20:57.670Z,30.73
2018-04-19T02:23:26.691Z,28.93
2018-04-19T02:25:54.927Z,33.90
2018-04-19T02:28:23.972Z,33.13
2018-04-19T02:30:52.195Z,33.17
2018-04-19T02:33:21.200Z,34.77
2018-04-19T02:35:50.210Z,32.13
2018-04-19T02:38:18.451Z,29.13
2018-04-19T02:40:47.475Z,39.20
2018-04-19T02:43:15.695Z,34.33
2018-04-19T02:45:43.975Z,34.67
2018-04-19T02:48:12.207Z,33.13
2018-04-19T02:50:40.468Z,31.70
2018-04-19T02:53:08.955Z,34.17
2018-04-19T02:55:37.944Z,32.33
2018-04-19T02:58:06.191Z,28.67
2018-04-19T03:00:35.201Z,26.87
2018-04-19T03:03:03.437Z,23.87
2018-04-19T03:05:31.683Z,27.90
2018-04-19T03:07:59.915Z,28.13
2018-04-19T03:10:28.927Z,30.43
2018-04-19T03:12:57.158Z,30.67
2018-04-19T03:15:25.392Z,26.33
2018-04-19T03:17:53.623Z,26.37
2018-04-19T03:20:22.641Z,28.47
2018-04-19T03:22:50.864Z,30.13
2018-04-19T03:25:19.115Z,29.90
2018-04-19T03:27:47.348Z,33.47
2018-04-19T03:30:15.584Z,34.03
2018-04-19T03:32:43.816Z,28.83
2018-04-19T03:35:12.057Z,33.50
2018-04-19T03:37:41.057Z,29.67
2018-04-19T03:40:10.063Z,27.13
2018-04-19T03:42:38.293Z,28.27
2018-04-19T03:45:06.541Z,33.43
2018-04-19T03:47:34.767Z,36.00
2018-04-19T03:50:03.789Z,36.50
2018-04-19T03:52:32.018Z,34.83
2018-04-19T03:55:01.028Z,34.43
2018-04-19T03:57:29.251Z,31.43
2018-04-19T03:59:58.271Z,31.47
2018-04-19T04:02:26.506Z,33.87
2018-04-19T04:04:54.746Z,35.63
2018-04-19T04:07:22.980Z,31.27
2018-04-19T04:09:51.678Z,29.67
2018-04-19T04:12:19.883Z,34.10
2018-04-19T04:14:48.111Z,34.23
2018-04-19T04:17:28.251Z,32.17
2018-04-19T04:20:04.472Z,31.73
2018-04-19T04:25:33.379Z,29.17
2018-04-19T04:28:01.610Z,31.57
2018-04-19T04:30:29.853Z,28.40
2018-04-19T04:32:58.083Z,31.83
2018-04-19T04:35:27.091Z,32.30
2018-04-19T04:37:55.331Z,32.50
2018-04-19T04:40:24.339Z,29.80
2018-04-19T04:42:52.579Z,28.23
2018-04-19T04:45:20.831Z,26.87
2018-04-19T04:47:49.165Z,22.43
2018-04-19T04:50:17.364Z,28.90
2018-04-19T04:52:45.598Z,37.93
2018-04-19T04:55:14.610Z,40.83
2018-04-19T04:57:42.848Z,33.07
2018-04-19T05:00:11.132Z,33.83
2018-04-19T05:02:39.334Z,34.00
2018-04-19T05:05:07.562Z,33.50
2018-04-19T05:07:35.799Z,30.77
2018-04-19T05:10:04.031Z,30.47
2018-04-19T05:12:33.039Z,30.20
2018-04-19T05:15:01.270Z,31.47
2018-04-19T05:17:29.519Z,31.30
2018-04-19T05:19:57.760Z,34.80
2018-04-19T05:22:26.008Z,37.83
2018-04-19T05:24:54.230Z,40.47
2018-04-19T05:27:22.479Z,41.83
2018-04-19T05:29:50.718Z,41.87
2018-04-19T05:32:18.986Z,45.27
2018-04-19T05:34:47.211Z,47.90
2018-04-19T05:37:15.479Z,53.87
2018-04-19T05:39:44.466Z,51.00
2018-04-19T05:42:13.488Z,42.90
2018-04-19T05:44:41.714Z,48.30
2018-04-19T05:47:10.728Z,53.10
2018-04-19T05:49:38.973Z,55.67
2018-04-19T05:52:07.376Z,55.20
2018-04-19T05:54:35.590Z,57.17
2018-04-19T05:57:03.847Z,58.77
2018-04-19T05:59:32.481Z,56.43
2018-04-19T06:02:00.706Z,55.67
2018-04-19T06:04:28.952Z,56.20
2018-04-19T06:06:57.968Z,55.03
2018-04-19T06:09:26.202Z,52.93
2018-04-19T06:11:55.215Z,47.53
2018-04-19T06:14:23.461Z,49.77
2018-04-19T06:16:51.710Z,48.43
2018-04-19T06:19:19.949Z,45.03
2018-04-19T06:21:48.215Z,42.70
2018-04-19T06:24:16.453Z,44.37
2018-04-19T06:26:44.703Z,44.37
2018-04-19T06:29:12.944Z,39.60
2018-04-19T06:31:41.199Z,38.43
2018-04-19T06:34:10.199Z,38.93
2018-04-19T06:36:38.852Z,37.53
2018-04-19T06:39:08.821Z,35.93
2018-04-19T06:41:38.156Z,35.90
2018-04-19T06:44:06.364Z,34.33
2018-04-19T06:46:34.621Z,34.23
2018-04-19T06:49:03.624Z,33.07
2018-04-19T06:51:32.639Z,32.10
2018-04-19T06:54:00.880Z,31.10
2018-04-19T06:56:29.897Z,30.23
2018-04-19T06:58:58.140Z,30.43
2018-04-19T07:01:26.400Z,31.40
2018-04-19T07:03:54.637Z,31.47
2018-04-19T07:06:22.995Z,29.50
2018-04-19T07:08:51.242Z,30.43
2018-04-19T07:11:20.244Z,30.67
2018-04-19T07:13:49.268Z,29.47
2018-04-19T07:16:17.509Z,26.97
2018-04-19T07:18:46.588Z,27.47
2018-04-19T07:21:17.707Z,26.77
2018-04-19T07:23:46.011Z,25.97
2018-04-19T07:26:15.016Z,26.03
2018-04-19T07:28:44.048Z,26.50
2018-04-19T07:31:12.291Z,25.43
2018-04-19T07:33:40.574Z,26.80
2018-04-19T07:36:08.831Z,25.03
2018-04-19T07:38:37.091Z,25.93
2018-04-19T07:41:06.103Z,25.67
2018-04-19T07:43:34.384Z,22.80
2018-04-19T07:46:02.636Z,24.30
2018-04-19T07:48:30.859Z,23.97
2018-04-19T07:50:59.127Z,21.77
2018-04-19T07:53:27.374Z,22.03
2018-04-19T07:55:55.617Z,22.10
2018-04-19T07:58:23.871Z,22.13
2018-04-19T08:00:52.898Z,22.10
2018-04-19T08:03:21.903Z,21.43
2018-04-19T08:05:50.164Z,21.50
2018-04-19T08:08:19.170Z,20.80
2018-04-19T08:10:47.427Z,21.83
2018-04-19T08:13:16.435Z,21.07
2018-04-19T08:15:44.693Z,18.87
2018-04-19T08:18:13.700Z,17.67
2018-04-19T08:20:42.737Z,15.80
2018-04-19T08:23:10.960Z,15.93
2018-04-19T08:25:39.968Z,16.57
2018-04-19T08:28:08.233Z,16.27
2018-04-19T08:30:37.234Z,15.77
2018-04-19T08:33:05.892Z,16.13
2018-04-19T08:35:34.904Z,16.23
2018-04-19T08:38:03.146Z,15.60
2018-04-19T08:40:31.387Z,16.40
2018-04-19T08:42:59.618Z,15.03
2018-04-19T08:45:27.868Z,15.40
2018-04-19T08:47:56.104Z,16.03
2018-04-19T08:50:24.358Z,14.03
2018-04-19T08:52:52.600Z,13.73
2018-04-19T08:55:21.603Z,15.00
2018-04-19T08:57:50.619Z,14.23
2018-04-19T09:00:18.857Z,14.32
2018-04-19T09:02:47.907Z,16.08
2018-04-19T09:05:16.102Z,14.68
2018-04-19T09:07:44.359Z,14.90
2018-04-19T09:10:12.600Z,14.82
2018-04-19T09:12:40.848Z,14.80
2018-04-19T09:15:09.846Z,14.43
2018-04-19T09:17:38.863Z,14.73
2018-04-19T09:20:07.102Z,14.10
2018-04-19T09:22:36.119Z,14.63
2018-04-19T09:25:04.358Z,15.63
2018-04-19T09:27:32.607Z,14.10
2018-04-19T09:30:00.896Z,14.50
2018-04-19T09:32:29.150Z,14.32
2018-04-19T09:34:57.389Z,13.82
2018-04-19T09:37:25.638Z,13.65
2018-04-19T09:39:54.654Z,13.93
2018-04-19T09:42:22.895Z,13.90
2018-04-19T09:44:51.136Z,11.40
2018-04-19T09:47:19.391Z,11.77
2018-04-19T09:49:47.625Z,12.25
2018-04-19T09:52:16.653Z,11.50
2018-04-19T09:54:44.878Z,11.70
2018-04-19T09:57:13.183Z,10.00
2018-04-19T09:59:41.456Z,8.63
2018-04-19T10:02:10.507Z,10.43
2018-04-19T10:04:38.793Z,10.77
2018-04-19T10:07:07.084Z,10.38
2018-04-19T10:09:36.127Z,10.20
2018-04-19T10:12:04.404Z,11.50
2018-04-19T10:14:32.681Z,11.30
2018-04-19T10:17:00.967Z,11.57
2018-04-19T10:19:29.231Z,12.00
2018-04-19T10:21:57.523Z,9.68
2018-04-19T10:24:25.794Z,8.50
2018-04-19T10:26:54.069Z,8.00
2018-04-19T10:29:22.338Z,8.40
2018-04-19T10:31:50.628Z,9.23
2018-04-19T10:34:18.937Z,8.63
2018-04-19T10:36:47.177Z,7.70
2018-04-19T10:39:15.443Z,8.43
2018-04-19T10:41:43.723Z,7.55
2018-04-19T10:44:11.983Z,7.10
2018-04-19T10:46:40.268Z,6.72
2018-04-19T10:49:08.533Z,7.00
2018-04-19T10:51:36.791Z,7.12
2018-04-19T10:54:05.082Z,7.50
2018-04-19T10:56:33.338Z,9.55
2018-04-19T10:59:01.623Z,10.75
2018-04-19T11:01:29.891Z,14.13
2018-04-19T11:03:58.179Z,13.77
2018-04-19T11:06:26.448Z,14.45
2018-04-19T11:08:54.751Z,13.13
2018-04-19T11:11:23.020Z,11.02
2018-04-19T11:13:51.363Z,12.77
2018-04-19T11:16:20.373Z,12.48
2018-04-19T11:18:48.659Z,15.52
2018-04-19T11:21:16.931Z,14.45
2018-04-19T11:23:45.217Z,14.75
2018-04-19T11:26:13.490Z,14.65
2018-04-19T11:28:41.782Z,14.85
2018-04-19T11:31:10.822Z,15.13
2018-04-19T11:33:39.110Z,14.87
2018-04-19T11:36:07.383Z,15.95
2018-04-19T11:38:35.676Z,14.98
2018-04-19T11:41:03.957Z,14.98
2018-04-19T11:43:32.242Z,14.20
2018-04-19T11:46:00.515Z,14.80
2018-04-19T11:48:28.799Z,15.27
2018-04-19T11:50:57.840Z,14.10
2018-04-19T11:53:26.131Z,14.60
2018-04-19T11:55:54.395Z,14.05
2018-04-19T11:58:22.684Z,13.48
2018-04-19T12:00:50.958Z,14.95
2018-04-19T12:03:19.252Z,14.25
2018-04-19T12:05:47.519Z,14.35
2018-04-19T12:08:15.806Z,14.05
2018-04-19T12:10:44.079Z,12.20
2018-04-19T12:13:12.363Z,11.98
2018-04-19T12:15:41.412Z,11.38
2018-04-19T12:18:09.695Z,10.30
2018-04-19T12:20:37.966Z,10.32
2018-04-19T12:23:06.275Z,9.88
2018-04-19T12:25:34.551Z,10.73
2018-04-19T12:28:02.835Z,10.48
2018-04-19T12:30:31.873Z,14.57
2018-04-19T12:33:00.160Z,14.07
2018-04-19T12:35:28.437Z,14.60
2018-04-19T12:37:56.715Z,14.52
2018-04-19T12:40:25.248Z,14.82
2018-04-19T12:42:54.332Z,14.82
2018-04-19T12:45:23.377Z,14.80
2018-04-19T12:47:51.660Z,16.27
2018-04-19T12:50:19.931Z,14.65
2018-04-19T12:52:48.212Z,16.35
2018-04-19T12:55:16.517Z,16.75
2018-04-19T12:57:45.551Z,17.15
2018-04-19T13:00:13.834Z,16.05
2018-04-19T13:02:42.102Z,15.02
2018-04-19T13:05:10.393Z,15.38
2018-04-19T13:07:38.663Z,15.10
2018-04-19T13:10:06.950Z,15.27
2018-04-19T13:12:35.219Z,15.25
2018-04-19T13:15:03.506Z,15.93
2018-04-19T13:17:31.788Z,15.18
2018-04-19T13:20:00.073Z,14.82
2018-04-19T13:22:28.344Z,15.52
2018-04-19T13:24:56.642Z,15.38
2018-04-19T13:27:25.677Z,15.90
2018-04-19T13:29:53.971Z,14.70
2018-04-19T13:32:22.253Z,13.93
2018-04-19T13:34:50.539Z,14.38
2018-04-19T13:37:18.808Z,13.25
2018-04-19T13:39:47.126Z,12.30
2018-04-19T13:42:16.137Z,13.43
2018-04-19T13:44:44.418Z,12.05
2018-04-19T13:47:12.682Z,11.20
2018-04-19T13:49:40.975Z,11.18
2018-04-19T13:52:09.256Z,11.68
2018-04-19T13:54:37.604Z,11.40
2018-04-19T13:57:05.870Z,10.40
2018-04-19T13:59:34.157Z,10.93
2018-04-19T14:02:02.478Z,9.80
2018-04-19T14:04:30.707Z,9.20
2018-04-19T14:06:58.979Z,9.40
2018-04-19T14:09:27.257Z,9.00
2018-04-19T14:11:55.523Z,8.73
2018-04-19T14:14:23.811Z,9.10
2018-04-19T14:16:52.072Z,10.10
2018-04-19T14:19:20.354Z,11.40
2018-04-19T14:21:48.636Z,10.55
2018-04-19T14:24:16.923Z,9.48
2018-04-19T14:26:45.192Z,9.80
2018-04-19T14:29:13.475Z,8.75
2018-04-19T14:31:42.511Z,9.93
2018-04-19T14:34:11.563Z,10.85
2018-04-19T14:36:39.949Z,9.82
2018-04-19T14:39:08.254Z,10.82
2018-04-19T14:41:37.284Z,10.63
2018-04-19T14:44:05.601Z,10.50
2018-04-19T14:46:33.878Z,12.07
2018-04-19T14:49:02.187Z,9.45
2018-04-19T14:51:30.454Z,8.55
2018-04-19T14:53:58.739Z,9.93
2018-04-19T14:56:27.027Z,9.13
2018-04-19T14:58:55.307Z,9.32
2018-04-19T15:01:23.588Z,9.02
2018-04-19T15:03:51.855Z,8.35
2018-04-19T15:06:22.022Z,7.57
2018-04-19T15:08:50.284Z,8.43
2018-04-19T15:11:18.582Z,7.53
2018-04-19T15:13:47.615Z,7.68
2018-04-19T15:16:15.897Z,7.25
2018-04-19T15:18:44.158Z,7.55
2018-04-19T15:21:12.439Z,7.25
2018-04-19T15:23:40.704Z,7.47
2018-04-19T15:26:08.978Z,8.10
2018-04-19T15:28:37.244Z,8.32
2018-04-19T15:31:05.523Z,8.32
2018-04-19T15:33:33.791Z,8.50
2018-04-19T15:36:02.071Z,8.93
2018-04-19T15:38:30.354Z,10.68
2018-04-19T15:40:58.636Z,11.32
2018-04-19T15:43:26.914Z,12.80
2018-04-19T15:45:55.197Z,11.63
2018-04-19T15:48:23.472Z,12.68
2018-04-19T15:50:51.755Z,13.10
2018-04-19T15:53:20.032Z,13.82
2018-04-19T15:55:48.353Z,14.27
2018-04-19T15:58:17.389Z,14.85
2018-04-19T16:00:45.688Z,16.23
2018-04-19T16:03:13.962Z,18.33
2018-04-19T16:05:42.247Z,17.85
2018-04-19T16:08:10.522Z,18.50
2018-04-19T16:10:38.804Z,18.60
2018-04-19T16:13:07.078Z,19.87
2018-04-19T16:15:35.372Z,19.02
2018-04-19T16:18:04.416Z,19.20
2018-04-19T16:20:32.709Z,18.92
2018-04-19T16:23:00.976Z,20.88
2018-04-19T16:25:29.264Z,21.75
2018-04-19T16:27:57.537Z,21.80
2018-04-19T16:30:25.819Z,21.48
2018-04-19T16:32:54.871Z,21.20
2018-04-19T16:35:23.155Z,21.05
2018-04-19T16:37:51.448Z,21.40
2018-04-19T16:40:19.739Z,22.03
2018-04-19T16:42:48.768Z,20.57
2018-04-19T16:45:17.062Z,19.63
2018-04-19T16:47:45.332Z,20.37
2018-04-19T16:50:13.630Z,19.17
2018-04-19T16:52:41.892Z,19.60
2018-04-19T16:55:10.177Z,19.73
2018-04-19T16:57:38.465Z,19.50
2018-04-19T17:00:06.738Z,19.03
2018-04-19T17:02:35.023Z,19.47
2018-04-19T17:05:03.304Z,18.07
2018-04-19T17:07:32.355Z,19.33
2018-04-19T17:10:00.623Z,18.13
2018-04-19T17:12:28.911Z,19.00
2018-04-19T17:14:57.184Z,19.83
2018-04-19T17:17:25.479Z,20.93
2018-04-19T17:19:53.745Z,20.43
2018-04-19T17:22:22.063Z,18.60
2018-04-19T17:24:50.343Z,17.93
2018-04-19T17:27:19.390Z,17.53
2018-04-19T17:29:47.673Z,16.20
2018-04-19T17:32:15.954Z,13.50
2018-04-19T17:34:44.224Z,13.93
2018-04-19T17:37:12.507Z,12.23
2018-04-19T17:39:40.782Z,11.77
2018-04-19T17:42:09.073Z,11.10
2018-04-19T17:44:38.108Z,10.17
2018-04-19T17:47:06.401Z,11.27
2018-04-19T17:49:35.449Z,12.27
2018-04-19T17:52:03.759Z,12.50
2018-04-19T17:54:32.048Z,14.10
2018-04-19T17:57:00.351Z,15.43
2018-04-19T17:59:29.403Z,15.90
2018-04-19T18:01:57.752Z,15.23
2018-04-19T18:04:26.218Z,16.07
2018-04-19T18:06:54.522Z,16.67
2018-04-19T18:09:22.783Z,16.80
2018-04-19T18:11:51.170Z,16.77
2018-04-19T18:14:19.443Z,18.07
2018-04-19T18:16:47.723Z,16.50
2018-04-19T18:19:15.990Z,17.37
2018-04-19T18:21:44.298Z,17.73
2018-04-19T18:24:12.575Z,18.10
2018-04-19T18:26:40.856Z,19.00
2018-04-19T18:29:09.130Z,19.17
2018-04-19T18:31:37.417Z,18.30
2018-04-19T18:34:05.729Z,19.63
2018-04-19T18:36:34.017Z,19.00
2018-04-19T18:39:02.287Z,18.93
2018-04-19T18:41:30.575Z,19.20
2018-04-19T18:43:58.843Z,20.43
2018-04-19T18:46:27.127Z,20.03
2018-04-19T18:48:55.415Z,21.80
2018-04-19T18:51:23.716Z,21.13
2018-04-19T18:53:51.979Z,22.03
2018-04-19T18:56:20.260Z,21.83
2018-04-19T18:58:48.562Z,22.33
2018-04-19T19:01:16.844Z,21.00
2018-04-19T19:03:45.135Z,22.67
2018-04-19T19:06:13.403Z,22.90
2018-04-19T19:08:41.690Z,22.73
2018-04-19T19:11:09.963Z,23.60
2018-04-19T19:13:38.243Z,24.00
2018-04-19T19:16:10.028Z,23.40
2018-04-19T19:18:50.239Z,23.47
2018-04-19T19:21:18.521Z,23.03
2018-04-19T19:23:46.815Z,23.77
2018-04-19T19:26:15.079Z,24.93
2018-04-19T19:28:43.360Z,23.80
2018-04-19T19:31:11.634Z,23.83
2018-04-19T19:33:39.926Z,23.90
2018-04-19T19:36:08.194Z,24.60
2018-04-19T19:38:36.480Z,25.30
2018-04-19T19:41:04.751Z,25.80
2018-04-19T19:43:33.031Z,24.77
2018-04-19T19:46:01.313Z,25.97
2018-04-19T19:48:29.599Z,25.23
2018-04-19T19:50:57.865Z,26.37
2018-04-19T19:53:26.144Z,27.10
2018-04-19T19:55:54.424Z,25.90
2018-04-19T19:58:23.472Z,25.47
2018-04-19T20:00:51.742Z,27.63
2018-04-19T20:03:20.023Z,25.87
2018-04-19T20:05:48.365Z,26.07
2018-04-19T20:08:16.584Z,26.03
2018-04-19T20:10:44.873Z,27.17
2018-04-19T20:13:13.163Z,26.83
2018-04-19T20:15:41.438Z,27.47
2018-04-19T20:18:09.722Z,27.07
2018-04-19T20:20:39.126Z,27.40
2018-04-19T20:23:07.423Z,29.40
2018-04-19T20:25:35.694Z,26.63
2018-04-19T20:28:03.982Z,28.47
2018-04-19T20:30:32.255Z,27.10
2018-04-19T20:33:00.540Z,28.33
2018-04-19T20:35:28.819Z,27.73
2018-04-19T20:37:57.108Z,27.67
2018-04-19T20:40:25.379Z,28.23
2018-04-19T20:42:53.663Z,28.03
2018-04-19T20:45:21.934Z,29.23
2018-04-19T20:47:50.313Z,28.13
2018-04-19T20:50:18.579Z,27.67
2018-04-19T20:52:46.862Z,29.37
2018-04-19T20:55:15.139Z,28.23
2018-04-19T20:57:43.432Z,28.87
2018-04-19T21:00:11.704Z,29.30
2018-04-19T21:02:39.993Z,28.67
2018-04-19T21:05:09.027Z,29.13
2018-04-19T21:07:37.317Z,28.83
2018-04-19T21:10:05.581Z,29.33
2018-04-19T21:12:33.843Z,30.23
2018-04-19T21:15:02.131Z,28.53
2018-04-19T21:17:30.403Z,28.47
2018-04-19T21:19:58.687Z,29.30
2018-04-19T21:22:26.959Z,27.97
2018-04-19T21:24:55.243Z,27.33
2018-04-19T21:27:23.507Z,27.50
2018-04-19T21:29:52.562Z,30.60
2018-04-19T21:32:21.601Z,27.33
2018-04-19T21:34:49.896Z,26.77
2018-04-19T21:37:18.167Z,27.67
2018-04-19T21:39:46.522Z,30.53
2018-04-19T21:42:15.559Z,29.73
2018-04-19T21:44:44.611Z,28.83
2018-04-19T21:47:12.922Z,28.63
2018-04-19T21:49:41.180Z,30.37
2018-04-19T21:52:10.967Z,28.10
2018-04-19T21:54:39.242Z,29.93
2018-04-19T21:57:07.516Z,30.27
2018-04-19T21:59:35.798Z,28.93
2018-04-19T22:02:04.066Z,27.93
2018-04-19T22:04:32.355Z,29.37
2018-04-19T22:07:00.623Z,27.90
2018-04-19T22:09:28.907Z,27.10
2018-04-19T22:11:57.179Z,31.63
2018-04-19T22:14:25.455Z,30.33
2018-04-19T22:16:53.739Z,28.73
2018-04-19T22:19:22.042Z,26.30
2018-04-19T22:21:51.084Z,25.93
2018-04-19T22:24:19.364Z,27.43
2018-04-19T22:26:47.635Z,26.57
2018-04-19T22:29:15.919Z,26.67
2018-04-19T22:31:44.195Z,27.63
2018-04-19T22:34:12.475Z,27.67
2018-04-19T22:36:40.752Z,28.83
2018-04-19T22:39:09.026Z,31.27
2018-04-19T22:41:37.299Z,30.47
2018-04-19T22:44:05.589Z,30.90
2018-04-19T22:46:33.859Z,30.60
2018-04-19T22:49:02.146Z,27.87
2018-04-19T22:51:31.178Z,27.33
2018-04-19T22:53:59.468Z,26.10
2018-04-19T22:56:27.740Z,25.00
2018-04-19T22:58:56.028Z,24.90
2018-04-19T23:01:24.300Z,28.93
2018-04-19T23:03:52.578Z,27.40
2018-04-19T23:06:20.855Z,27.83
2018-04-19T23:08:49.134Z,29.40
2018-04-19T23:11:17.408Z,27.37
2018-04-19T23:13:45.682Z,29.10
2018-04-19T23:16:13.969Z,28.97
2018-04-19T23:18:42.234Z,29.50
2018-04-19T23:21:10.519Z,32.53
2018-04-19T23:23:38.794Z,30.80
2018-04-19T23:26:07.077Z,30.70
2018-04-19T23:28:35.387Z,32.47
2018-04-19T23:31:03.681Z,30.60
2018-04-19T23:33:31.961Z,26.70
2018-04-19T23:36:00.235Z,25.53
2018-04-19T23:38:28.509Z,23.47
2018-04-19T23:40:56.787Z,24.57
2018-04-19T23:43:25.063Z,27.53
2018-04-19T23:45:53.347Z,28.37
2018-04-19T23:48:21.619Z,27.33
2018-04-19T23:50:49.906Z,27.10
2018-04-19T23:53:18.175Z,27.97
2018-04-19T23:55:46.455Z,30.80
2018-04-19T23:58:14.728Z,29.23
